sensor_id;sensor_type;location;lat;lon;timestamp;P1;durP1;ratioP1;P2;durP2;ratioP2
14251;SDS011;7210;51.502;10.722;2023-03-05T00:00:51;4.97;;;1.87;;
14251;SDS011;7210;51.502;10.722;2023-03-05T00:03:18;3.80;;;1.50;;
14251;SDS011;7210;51.502;10.722;2023-03-05T00:05:47;4.83;;;2.00;;
14251;SDS011;7210;51.502;10.722;2023-03-05T00:08:18;4.77;;;1.80;;
14251;SDS011;7210;51.502;10.722;2023-03-05T00:10:45;3.83;;;1.63;;
14251;SDS011;7210;51.502;10.722;2023-03-05T00:13:24;5.37;;;2.00;;
14251;SDS011;7210;51.502;10.722;2023-03-05T00:15:51;5.77;;;1.77;;
14251;SDS011;7210;51.502;10.722;2023-03-05T00:18:19;3.73;;;1.60;;
14251;SDS011;7210;51.502;10.722;2023-03-05T00:20:48;5.17;;;1.80;;
14251;SDS011;7210;51.502;10.722;2023-03-05T00:23:16;6.43;;;1.70;;
14251;SDS011;7210;51.502;10.722;2023-03-05T00:25:43;7.40;;;2.13;;
14251;SDS011;7210;51.502;10.722;2023-03-05T00:28:10;8.13;;;2.23;;
14251;SDS011;7210;51.502;10.722;2023-03-05T00:30:38;6.60;;;1.70;;
14251;SDS011;7210;51.502;10.722;2023-03-05T00:33:12;7.30;;;2.77;;
14251;SDS011;7210;51.502;10.722;2023-03-05T00:35:40;6.20;;;1.90;;
14251;SDS011;7210;51.502;10.722;2023-03-05T00:38:11;6.00;;;1.80;;
14251;SDS011;7210;51.502;10.722;2023-03-05T00:40:40;5.33;;;1.73;;
14251;SDS011;7210;51.502;10.722;2023-03-05T00:43:07;4.07;;;2.00;;
14251;SDS011;7210;51.502;10.722;2023-03-05T00:45:35;7.17;;;2.00;;
14251;SDS011;7210;51.502;10.722;2023-03-05T00:48:03;7.37;;;2.00;;
14251;SDS011;7210;51.502;10.722;2023-03-05T00:50:31;6.93;;;1.73;;
14251;SDS011;7210;51.502;10.722;2023-03-05T00:52:58;7.17;;;2.10;;
14251;SDS011;7210;51.502;10.722;2023-03-05T00:55:26;7.57;;;1.80;;
14251;SDS011;7210;51.502;10.722;2023-03-05T00:57:53;7.67;;;1.80;;
14251;SDS011;7210;51.502;10.722;2023-03-05T01:00:24;5.53;;;1.67;;
14251;SDS011;7210;51.502;10.722;2023-03-05T01:02:54;7.37;;;1.90;;
14251;SDS011;7210;51.502;10.722;2023-03-05T01:05:21;5.57;;;2.00;;
14251;SDS011;7210;51.502;10.722;2023-03-05T01:07:50;5.07;;;1.67;;
14251;SDS011;7210;51.502;10.722;2023-03-05T01:10:18;4.63;;;1.93;;
14251;SDS011;7210;51.502;10.722;2023-03-05T01:12:58;5.90;;;2.07;;
14251;SDS011;7210;51.502;10.722;2023-03-05T01:15:25;4.07;;;1.90;;
14251;SDS011;7210;51.502;10.722;2023-03-05T01:17:52;5.73;;;1.73;;
14251;SDS011;7210;51.502;10.722;2023-03-05T01:20:20;5.37;;;1.90;;
14251;SDS011;7210;51.502;10.722;2023-03-05T01:22:57;4.40;;;2.13;;
14251;SDS011;7210;51.502;10.722;2023-03-05T01:25:26;7.47;;;2.70;;
14251;SDS011;7210;51.502;10.722;2023-03-05T01:27:54;4.93;;;2.17;;
14251;SDS011;7210;51.502;10.722;2023-03-05T01:30:22;7.80;;;2.17;;
14251;SDS011;7210;51.502;10.722;2023-03-05T01:32:50;8.27;;;2.53;;
14251;SDS011;7210;51.502;10.722;2023-03-05T01:35:17;9.00;;;2.80;;
14251;SDS011;7210;51.502;10.722;2023-03-05T01:37:48;8.23;;;2.87;;
14251;SDS011;7210;51.502;10.722;2023-03-05T01:40:17;3.43;;;2.33;;
14251;SDS011;7210;51.502;10.722;2023-03-05T01:42:47;6.93;;;2.50;;
14251;SDS011;7210;51.502;10.722;2023-03-05T01:45:23;6.73;;;2.77;;
14251;SDS011;7210;51.502;10.722;2023-03-05T01:47:54;8.43;;;2.60;;
14251;SDS011;7210;51.502;10.722;2023-03-05T01:50:21;6.23;;;2.60;;
14251;SDS011;7210;51.502;10.722;2023-03-05T01:52:54;4.27;;;2.43;;
14251;SDS011;7210;51.502;10.722;2023-03-05T01:55:30;5.93;;;2.70;;
14251;SDS011;7210;51.502;10.722;2023-03-05T01:58:02;4.43;;;2.53;;
14251;SDS011;7210;51.502;10.722;2023-03-05T02:00:36;8.00;;;2.90;;
14251;SDS011;7210;51.502;10.722;2023-03-05T02:03:10;7.00;;;2.53;;
14251;SDS011;7210;51.502;10.722;2023-03-05T02:05:39;6.23;;;2.80;;
14251;SDS011;7210;51.502;10.722;2023-03-05T02:08:09;7.17;;;2.70;;
14251;SDS011;7210;51.502;10.722;2023-03-05T02:10:39;9.33;;;2.93;;
14251;SDS011;7210;51.502;10.722;2023-03-05T02:13:11;8.17;;;2.60;;
14251;SDS011;7210;51.502;10.722;2023-03-05T02:15:43;6.37;;;2.50;;
14251;SDS011;7210;51.502;10.722;2023-03-05T02:18:14;5.60;;;2.63;;
14251;SDS011;7210;51.502;10.722;2023-03-05T02:20:44;6.63;;;2.63;;
14251;SDS011;7210;51.502;10.722;2023-03-05T02:23:18;8.13;;;3.00;;
14251;SDS011;7210;51.502;10.722;2023-03-05T02:25:49;7.23;;;2.60;;
14251;SDS011;7210;51.502;10.722;2023-03-05T02:28:19;7.40;;;2.60;;
14251;SDS011;7210;51.502;10.722;2023-03-05T02:31:10;5.73;;;2.33;;
14251;SDS011;7210;51.502;10.722;2023-03-05T02:33:42;10.30;;;2.40;;
14251;SDS011;7210;51.502;10.722;2023-03-05T02:36:10;2.47;;;1.90;;
14251;SDS011;7210;51.502;10.722;2023-03-05T02:38:40;7.17;;;2.10;;
14251;SDS011;7210;51.502;10.722;2023-03-05T02:41:11;8.90;;;2.10;;
14251;SDS011;7210;51.502;10.722;2023-03-05T02:43:40;6.83;;;2.50;;
14251;SDS011;7210;51.502;10.722;2023-03-05T02:46:07;5.30;;;2.10;;
14251;SDS011;7210;51.502;10.722;2023-03-05T02:48:35;5.93;;;2.03;;
14251;SDS011;7210;51.502;10.722;2023-03-05T02:51:02;6.37;;;1.90;;
14251;SDS011;7210;51.502;10.722;2023-03-05T02:53:32;7.03;;;2.67;;
14251;SDS011;7210;51.502;10.722;2023-03-05T02:56:02;6.90;;;2.10;;
14251;SDS011;7210;51.502;10.722;2023-03-05T02:58:32;4.77;;;2.03;;
14251;SDS011;7210;51.502;10.722;2023-03-05T03:01:00;4.87;;;2.03;;
14251;SDS011;7210;51.502;10.722;2023-03-05T03:03:27;5.40;;;2.37;;
14251;SDS011;7210;51.502;10.722;2023-03-05T03:05:54;4.73;;;1.93;;
14251;SDS011;7210;51.502;10.722;2023-03-05T03:08:21;5.63;;;2.17;;
14251;SDS011;7210;51.502;10.722;2023-03-05T03:10:48;7.07;;;2.50;;
14251;SDS011;7210;51.502;10.722;2023-03-05T03:13:17;3.93;;;2.27;;
14251;SDS011;7210;51.502;10.722;2023-03-05T03:15:44;8.03;;;2.70;;
14251;SDS011;7210;51.502;10.722;2023-03-05T03:18:11;7.33;;;2.63;;
14251;SDS011;7210;51.502;10.722;2023-03-05T03:20:38;5.97;;;2.23;;
14251;SDS011;7210;51.502;10.722;2023-03-05T03:23:06;7.07;;;2.20;;
14251;SDS011;7210;51.502;10.722;2023-03-05T03:25:33;5.50;;;2.20;;
14251;SDS011;7210;51.502;10.722;2023-03-05T03:28:00;5.73;;;2.17;;
14251;SDS011;7210;51.502;10.722;2023-03-05T03:30:29;9.67;;;2.73;;
14251;SDS011;7210;51.502;10.722;2023-03-05T03:32:56;6.63;;;2.90;;
14251;SDS011;7210;51.502;10.722;2023-03-05T03:35:23;6.37;;;2.47;;
14251;SDS011;7210;51.502;10.722;2023-03-05T03:37:50;6.17;;;2.50;;
14251;SDS011;7210;51.502;10.722;2023-03-05T03:40:18;6.97;;;2.93;;
14251;SDS011;7210;51.502;10.722;2023-03-05T03:42:45;7.27;;;2.60;;
14251;SDS011;7210;51.502;10.722;2023-03-05T03:45:12;7.40;;;2.33;;
14251;SDS011;7210;51.502;10.722;2023-03-05T03:47:42;6.53;;;2.47;;
14251;SDS011;7210;51.502;10.722;2023-03-05T03:50:10;8.43;;;2.50;;
14251;SDS011;7210;51.502;10.722;2023-03-05T03:52:37;7.33;;;2.40;;
14251;SDS011;7210;51.502;10.722;2023-03-05T03:55:05;6.80;;;2.60;;
14251;SDS011;7210;51.502;10.722;2023-03-05T03:57:33;7.30;;;2.60;;
14251;SDS011;7210;51.502;10.722;2023-03-05T04:00:00;6.47;;;2.50;;
14251;SDS011;7210;51.502;10.722;2023-03-05T04:02:43;6.90;;;2.70;;
14251;SDS011;7210;51.502;10.722;2023-03-05T04:05:10;5.90;;;2.50;;
14251;SDS011;7210;51.502;10.722;2023-03-05T04:07:37;6.27;;;2.63;;
14251;SDS011;7210;51.502;10.722;2023-03-05T04:10:05;5.90;;;2.40;;
14251;SDS011;7210;51.502;10.722;2023-03-05T04:12:33;9.43;;;2.90;;
14251;SDS011;7210;51.502;10.722;2023-03-05T04:15:00;7.57;;;2.50;;
14251;SDS011;7210;51.502;10.722;2023-03-05T04:17:30;7.33;;;2.20;;
14251;SDS011;7210;51.502;10.722;2023-03-05T04:20:00;4.23;;;2.10;;
14251;SDS011;7210;51.502;10.722;2023-03-05T04:22:29;8.17;;;2.17;;
14251;SDS011;7210;51.502;10.722;2023-03-05T04:24:56;7.10;;;2.53;;
14251;SDS011;7210;51.502;10.722;2023-03-05T04:27:23;7.93;;;3.17;;
14251;SDS011;7210;51.502;10.722;2023-03-05T04:29:50;6.80;;;2.53;;
14251;SDS011;7210;51.502;10.722;2023-03-05T04:32:18;8.20;;;2.70;;
14251;SDS011;7210;51.502;10.722;2023-03-05T04:34:47;7.93;;;2.50;;
14251;SDS011;7210;51.502;10.722;2023-03-05T04:37:16;6.87;;;2.43;;
14251;SDS011;7210;51.502;10.722;2023-03-05T04:39:43;5.33;;;2.77;;
14251;SDS011;7210;51.502;10.722;2023-03-05T04:42:10;5.23;;;2.17;;
14251;SDS011;7210;51.502;10.722;2023-03-05T04:44:42;8.00;;;2.60;;
14251;SDS011;7210;51.502;10.722;2023-03-05T04:47:09;8.20;;;2.50;;
14251;SDS011;7210;51.502;10.722;2023-03-05T04:49:36;7.03;;;2.80;;
14251;SDS011;7210;51.502;10.722;2023-03-05T04:52:03;7.87;;;3.53;;
14251;SDS011;7210;51.502;10.722;2023-03-05T04:54:32;6.03;;;3.27;;
14251;SDS011;7210;51.502;10.722;2023-03-05T04:56:59;7.53;;;3.60;;
14251;SDS011;7210;51.502;10.722;2023-03-05T04:59:26;8.03;;;3.03;;
14251;SDS011;7210;51.502;10.722;2023-03-05T05:01:53;5.83;;;3.00;;
14251;SDS011;7210;51.502;10.722;2023-03-05T05:04:21;8.33;;;3.57;;
14251;SDS011;7210;51.502;10.722;2023-03-05T05:06:49;6.97;;;3.10;;
14251;SDS011;7210;51.502;10.722;2023-03-05T05:09:16;9.07;;;3.00;;
14251;SDS011;7210;51.502;10.722;2023-03-05T05:11:44;8.00;;;3.33;;
14251;SDS011;7210;51.502;10.722;2023-03-05T05:14:11;12.30;;;3.83;;
14251;SDS011;7210;51.502;10.722;2023-03-05T05:19:25;6.07;;;3.27;;
14251;SDS011;7210;51.502;10.722;2023-03-05T05:21:52;5.97;;;3.00;;
14251;SDS011;7210;51.502;10.722;2023-03-05T05:24:20;6.53;;;3.80;;
14251;SDS011;7210;51.502;10.722;2023-03-05T05:26:48;9.27;;;3.90;;
14251;SDS011;7210;51.502;10.722;2023-03-05T05:29:16;11.57;;;3.90;;
14251;SDS011;7210;51.502;10.722;2023-03-05T05:31:43;9.33;;;3.97;;
14251;SDS011;7210;51.502;10.722;2023-03-05T05:34:10;9.93;;;3.67;;
14251;SDS011;7210;51.502;10.722;2023-03-05T05:36:37;12.03;;;4.20;;
14251;SDS011;7210;51.502;10.722;2023-03-05T05:39:05;10.13;;;3.63;;
14251;SDS011;7210;51.502;10.722;2023-03-05T05:41:38;7.03;;;4.03;;
14251;SDS011;7210;51.502;10.722;2023-03-05T05:44:06;4.93;;;3.80;;
14251;SDS011;7210;51.502;10.722;2023-03-05T05:46:34;8.67;;;4.10;;
14251;SDS011;7210;51.502;10.722;2023-03-05T05:49:01;7.30;;;4.27;;
14251;SDS011;7210;51.502;10.722;2023-03-05T05:51:28;8.80;;;4.10;;
14251;SDS011;7210;51.502;10.722;2023-03-05T05:53:55;8.13;;;4.20;;
14251;SDS011;7210;51.502;10.722;2023-03-05T05:56:22;8.40;;;4.00;;
14251;SDS011;7210;51.502;10.722;2023-03-05T05:58:50;7.33;;;4.00;;
14251;SDS011;7210;51.502;10.722;2023-03-05T06:01:20;8.70;;;3.73;;
14251;SDS011;7210;51.502;10.722;2023-03-05T06:03:50;8.17;;;4.17;;
14251;SDS011;7210;51.502;10.722;2023-03-05T06:06:18;9.07;;;4.30;;
14251;SDS011;7210;51.502;10.722;2023-03-05T06:08:48;10.13;;;4.20;;
14251;SDS011;7210;51.502;10.722;2023-03-05T06:11:16;8.77;;;4.27;;
14251;SDS011;7210;51.502;10.722;2023-03-05T06:13:44;8.20;;;4.10;;
14251;SDS011;7210;51.502;10.722;2023-03-05T06:16:12;9.73;;;4.47;;
14251;SDS011;7210;51.502;10.722;2023-03-05T06:18:43;7.57;;;3.90;;
14251;SDS011;7210;51.502;10.722;2023-03-05T06:21:11;10.37;;;4.30;;
14251;SDS011;7210;51.502;10.722;2023-03-05T06:23:41;10.33;;;4.57;;
14251;SDS011;7210;51.502;10.722;2023-03-05T06:26:10;6.33;;;4.47;;
14251;SDS011;7210;51.502;10.722;2023-03-05T06:28:39;8.50;;;4.77;;
14251;SDS011;7210;51.502;10.722;2023-03-05T06:31:07;6.83;;;4.23;;
14251;SDS011;7210;51.502;10.722;2023-03-05T06:33:37;7.03;;;4.07;;
14251;SDS011;7210;51.502;10.722;2023-03-05T06:36:10;6.17;;;4.13;;
14251;SDS011;7210;51.502;10.722;2023-03-05T06:38:41;9.60;;;4.37;;
14251;SDS011;7210;51.502;10.722;2023-03-05T06:41:09;6.13;;;4.27;;
14251;SDS011;7210;51.502;10.722;2023-03-05T06:43:39;9.40;;;5.20;;
14251;SDS011;7210;51.502;10.722;2023-03-05T06:46:10;9.20;;;4.80;;
14251;SDS011;7210;51.502;10.722;2023-03-05T06:48:40;14.27;;;7.97;;
14251;SDS011;7210;51.502;10.722;2023-03-05T06:51:12;11.47;;;5.53;;
14251;SDS011;7210;51.502;10.722;2023-03-05T06:53:41;27.43;;;16.03;;
14251;SDS011;7210;51.502;10.722;2023-03-05T06:56:12;19.70;;;13.60;;
14251;SDS011;7210;51.502;10.722;2023-03-05T06:58:49;9.43;;;6.00;;
14251;SDS011;7210;51.502;10.722;2023-03-05T07:01:17;9.83;;;6.00;;
14251;SDS011;7210;51.502;10.722;2023-03-05T07:03:48;11.87;;;6.90;;
14251;SDS011;7210;51.502;10.722;2023-03-05T07:06:18;7.73;;;5.57;;
14251;SDS011;7210;51.502;10.722;2023-03-05T07:08:47;9.33;;;5.83;;
14251;SDS011;7210;51.502;10.722;2023-03-05T07:11:16;6.77;;;5.70;;
14251;SDS011;7210;51.502;10.722;2023-03-05T07:13:48;8.83;;;5.90;;
14251;SDS011;7210;51.502;10.722;2023-03-05T07:16:16;8.50;;;5.10;;
14251;SDS011;7210;51.502;10.722;2023-03-05T07:18:46;9.10;;;5.17;;
14251;SDS011;7210;51.502;10.722;2023-03-05T07:21:16;9.10;;;5.83;;
14251;SDS011;7210;51.502;10.722;2023-03-05T07:23:48;14.33;;;6.73;;
14251;SDS011;7210;51.502;10.722;2023-03-05T07:26:18;9.33;;;5.33;;
14251;SDS011;7210;51.502;10.722;2023-03-05T07:28:45;14.73;;;7.47;;
14251;SDS011;7210;51.502;10.722;2023-03-05T07:31:13;10.40;;;5.93;;
14251;SDS011;7210;51.502;10.722;2023-03-05T07:33:43;10.97;;;6.50;;
14251;SDS011;7210;51.502;10.722;2023-03-05T07:36:10;9.63;;;6.07;;
14251;SDS011;7210;51.502;10.722;2023-03-05T07:38:39;12.90;;;6.80;;
14251;SDS011;7210;51.502;10.722;2023-03-05T07:41:07;7.03;;;6.20;;
14251;SDS011;7210;51.502;10.722;2023-03-05T07:43:37;12.70;;;7.23;;
14251;SDS011;7210;51.502;10.722;2023-03-05T07:46:05;7.37;;;5.77;;
14251;SDS011;7210;51.502;10.722;2023-03-05T07:48:34;12.03;;;6.73;;
14251;SDS011;7210;51.502;10.722;2023-03-05T07:51:02;7.73;;;5.77;;
14251;SDS011;7210;51.502;10.722;2023-03-05T07:53:31;9.50;;;5.90;;
14251;SDS011;7210;51.502;10.722;2023-03-05T07:55:59;10.87;;;6.30;;
14251;SDS011;7210;51.502;10.722;2023-03-05T07:58:27;12.00;;;8.13;;
14251;SDS011;7210;51.502;10.722;2023-03-05T08:00:54;20.83;;;12.30;;
14251;SDS011;7210;51.502;10.722;2023-03-05T08:03:22;26.50;;;12.83;;
14251;SDS011;7210;51.502;10.722;2023-03-05T08:05:49;17.00;;;10.90;;
14251;SDS011;7210;51.502;10.722;2023-03-05T08:08:17;17.63;;;12.20;;
14251;SDS011;7210;51.502;10.722;2023-03-05T08:10:44;18.37;;;12.57;;
14251;SDS011;7210;51.502;10.722;2023-03-05T08:13:13;15.00;;;9.07;;
14251;SDS011;7210;51.502;10.722;2023-03-05T08:15:40;15.30;;;7.97;;
14251;SDS011;7210;51.502;10.722;2023-03-05T08:18:07;12.77;;;6.83;;
14251;SDS011;7210;51.502;10.722;2023-03-05T08:20:34;12.90;;;6.37;;
14251;SDS011;7210;51.502;10.722;2023-03-05T08:23:02;12.07;;;6.53;;
14251;SDS011;7210;51.502;10.722;2023-03-05T08:25:29;11.27;;;5.80;;
14251;SDS011;7210;51.502;10.722;2023-03-05T08:27:56;8.43;;;5.70;;
14251;SDS011;7210;51.502;10.722;2023-03-05T08:30:25;10.90;;;5.70;;
14251;SDS011;7210;51.502;10.722;2023-03-05T08:32:52;9.77;;;5.73;;
14251;SDS011;7210;51.502;10.722;2023-03-05T08:35:21;8.97;;;5.37;;
14251;SDS011;7210;51.502;10.722;2023-03-05T08:37:49;12.30;;;6.10;;
14251;SDS011;7210;51.502;10.722;2023-03-05T08:40:16;10.67;;;5.33;;
14251;SDS011;7210;51.502;10.722;2023-03-05T08:42:44;7.60;;;5.17;;
14251;SDS011;7210;51.502;10.722;2023-03-05T08:45:11;11.07;;;5.37;;
14251;SDS011;7210;51.502;10.722;2023-03-05T08:47:40;9.87;;;4.97;;
14251;SDS011;7210;51.502;10.722;2023-03-05T08:50:08;8.67;;;4.90;;
14251;SDS011;7210;51.502;10.722;2023-03-05T08:52:37;11.70;;;4.83;;
14251;SDS011;7210;51.502;10.722;2023-03-05T08:55:04;8.40;;;4.50;;
14251;SDS011;7210;51.502;10.722;2023-03-05T08:57:32;8.33;;;4.70;;
14251;SDS011;7210;51.502;10.722;2023-03-05T08:59:59;7.07;;;4.07;;
14251;SDS011;7210;51.502;10.722;2023-03-05T09:02:26;7.53;;;4.13;;
14251;SDS011;7210;51.502;10.722;2023-03-05T09:04:55;5.63;;;3.63;;
14251;SDS011;7210;51.502;10.722;2023-03-05T09:07:24;5.47;;;3.47;;
14251;SDS011;7210;51.502;10.722;2023-03-05T09:09:51;6.80;;;3.53;;
14251;SDS011;7210;51.502;10.722;2023-03-05T09:12:18;4.77;;;3.40;;
14251;SDS011;7210;51.502;10.722;2023-03-05T09:14:45;6.80;;;3.70;;
14251;SDS011;7210;51.502;10.722;2023-03-05T09:17:12;4.70;;;3.50;;
14251;SDS011;7210;51.502;10.722;2023-03-05T09:19:42;4.53;;;3.13;;
14251;SDS011;7210;51.502;10.722;2023-03-05T09:22:10;4.67;;;3.00;;
14251;SDS011;7210;51.502;10.722;2023-03-05T09:24:37;4.00;;;2.93;;
14251;SDS011;7210;51.502;10.722;2023-03-05T09:27:04;5.77;;;3.03;;
14251;SDS011;7210;51.502;10.722;2023-03-05T09:29:32;8.23;;;3.33;;
14251;SDS011;7210;51.502;10.722;2023-03-05T09:32:05;5.27;;;3.53;;
14251;SDS011;7210;51.502;10.722;2023-03-05T09:34:33;7.30;;;3.67;;
14251;SDS011;7210;51.502;10.722;2023-03-05T09:37:00;7.83;;;4.63;;
14251;SDS011;7210;51.502;10.722;2023-03-05T09:39:29;5.87;;;4.10;;
14251;SDS011;7210;51.502;10.722;2023-03-05T09:42:06;7.13;;;4.10;;
14251;SDS011;7210;51.502;10.722;2023-03-05T09:45:02;4.97;;;3.60;;
14251;SDS011;7210;51.502;10.722;2023-03-05T09:47:44;4.90;;;3.80;;
14251;SDS011;7210;51.502;10.722;2023-03-05T09:50:29;7.10;;;3.30;;
14251;SDS011;7210;51.502;10.722;2023-03-05T09:53:05;6.57;;;3.53;;
14251;SDS011;7210;51.502;10.722;2023-03-05T09:55:46;5.37;;;3.70;;
14251;SDS011;7210;51.502;10.722;2023-03-05T09:58:18;6.13;;;4.27;;
14251;SDS011;7210;51.502;10.722;2023-03-05T10:00:59;4.83;;;3.43;;
14251;SDS011;7210;51.502;10.722;2023-03-05T10:03:33;6.70;;;3.93;;
14251;SDS011;7210;51.502;10.722;2023-03-05T10:06:19;5.60;;;3.63;;
14251;SDS011;7210;51.502;10.722;2023-03-05T10:08:53;5.23;;;3.37;;
14251;SDS011;7210;51.502;10.722;2023-03-05T10:11:35;2.90;;;2.60;;
14251;SDS011;7210;51.502;10.722;2023-03-05T10:14:10;4.23;;;2.50;;
14251;SDS011;7210;51.502;10.722;2023-03-05T10:17:02;2.87;;;2.40;;
14251;SDS011;7210;51.502;10.722;2023-03-05T10:20:29;2.97;;;2.13;;
14251;SDS011;7210;51.502;10.722;2023-03-05T10:23:19;2.50;;;2.30;;
14251;SDS011;7210;51.502;10.722;2023-03-05T10:26:16;2.33;;;2.13;;
14251;SDS011;7210;51.502;10.722;2023-03-05T10:29:06;7.07;;;4.80;;
14251;SDS011;7210;51.502;10.722;2023-03-05T10:31:53;7.83;;;6.43;;
14251;SDS011;7210;51.502;10.722;2023-03-05T10:34:46;10.30;;;7.40;;
14251;SDS011;7210;51.502;10.722;2023-03-05T10:37:51;4.70;;;4.00;;
14251;SDS011;7210;51.502;10.722;2023-03-05T10:40:38;5.50;;;3.97;;
14251;SDS011;7210;51.502;10.722;2023-03-05T10:43:12;3.77;;;3.37;;
14251;SDS011;7210;51.502;10.722;2023-03-05T10:45:55;3.83;;;3.23;;
14251;SDS011;7210;51.502;10.722;2023-03-05T10:48:31;2.93;;;2.63;;
14251;SDS011;7210;51.502;10.722;2023-03-05T10:51:09;3.03;;;2.30;;
14251;SDS011;7210;51.502;10.722;2023-03-05T10:53:44;2.20;;;2.00;;
14251;SDS011;7210;51.502;10.722;2023-03-05T10:56:20;4.07;;;1.93;;
14251;SDS011;7210;51.502;10.722;2023-03-05T10:58:49;3.10;;;1.90;;
14251;SDS011;7210;51.502;10.722;2023-03-05T11:01:19;3.20;;;2.23;;
14251;SDS011;7210;51.502;10.722;2023-03-05T11:03:51;2.20;;;2.00;;
14251;SDS011;7210;51.502;10.722;2023-03-05T11:06:26;2.83;;;2.07;;
14251;SDS011;7210;51.502;10.722;2023-03-05T11:09:13;2.00;;;1.80;;
14251;SDS011;7210;51.502;10.722;2023-03-05T11:12:01;3.37;;;2.20;;
14251;SDS011;7210;51.502;10.722;2023-03-05T11:14:39;2.13;;;1.93;;
14251;SDS011;7210;51.502;10.722;2023-03-05T11:17:25;4.63;;;2.50;;
14251;SDS011;7210;51.502;10.722;2023-03-05T11:23:03;4.37;;;3.50;;
14251;SDS011;7210;51.502;10.722;2023-03-05T11:25:47;2.90;;;2.63;;
14251;SDS011;7210;51.502;10.722;2023-03-05T11:28:23;3.27;;;2.63;;
14251;SDS011;7210;51.502;10.722;2023-03-05T11:30:55;2.07;;;1.87;;
14251;SDS011;7210;51.502;10.722;2023-03-05T11:33:35;3.27;;;1.90;;
14251;SDS011;7210;51.502;10.722;2023-03-05T11:36:10;3.77;;;1.73;;
14251;SDS011;7210;51.502;10.722;2023-03-05T11:38:51;2.93;;;1.80;;
14251;SDS011;7210;51.502;10.722;2023-03-05T11:41:26;2.30;;;1.50;;
14251;SDS011;7210;51.502;10.722;2023-03-05T11:43:59;2.80;;;2.10;;
14251;SDS011;7210;51.502;10.722;2023-03-05T11:46:37;3.37;;;1.47;;
14251;SDS011;7210;51.502;10.722;2023-03-05T11:49:10;2.90;;;1.63;;
14251;SDS011;7210;51.502;10.722;2023-03-05T11:51:44;2.20;;;1.47;;
14251;SDS011;7210;51.502;10.722;2023-03-05T11:54:25;2.53;;;1.33;;
14251;SDS011;7210;51.502;10.722;2023-03-05T11:57:07;1.97;;;1.73;;
14251;SDS011;7210;51.502;10.722;2023-03-05T11:59:39;3.97;;;1.37;;
14251;SDS011;7210;51.502;10.722;2023-03-05T12:02:13;3.37;;;1.63;;
14251;SDS011;7210;51.502;10.722;2023-03-05T12:04:47;2.23;;;1.60;;
14251;SDS011;7210;51.502;10.722;2023-03-05T12:07:16;3.43;;;1.90;;
14251;SDS011;7210;51.502;10.722;2023-03-05T12:09:51;2.10;;;1.53;;
14251;SDS011;7210;51.502;10.722;2023-03-05T12:12:27;3.80;;;1.87;;
14251;SDS011;7210;51.502;10.722;2023-03-05T12:15:17;3.73;;;2.03;;
14251;SDS011;7210;51.502;10.722;2023-03-05T12:18:07;2.87;;;1.93;;
14251;SDS011;7210;51.502;10.722;2023-03-05T12:20:49;3.07;;;1.87;;
14251;SDS011;7210;51.502;10.722;2023-03-05T12:23:43;2.57;;;1.30;;
14251;SDS011;7210;51.502;10.722;2023-03-05T12:26:16;2.77;;;1.50;;
14251;SDS011;7210;51.502;10.722;2023-03-05T12:31:35;2.67;;;1.47;;
14251;SDS011;7210;51.502;10.722;2023-03-05T12:37:15;4.00;;;1.33;;
14251;SDS011;7210;51.502;10.722;2023-03-05T12:40:26;3.07;;;1.50;;
14251;SDS011;7210;51.502;10.722;2023-03-05T12:42:56;3.33;;;1.30;;
14251;SDS011;7210;51.502;10.722;2023-03-05T12:45:35;2.37;;;1.40;;
14251;SDS011;7210;51.502;10.722;2023-03-05T12:51:28;1.90;;;1.20;;
14251;SDS011;7210;51.502;10.722;2023-03-05T12:56:59;3.57;;;1.23;;
14251;SDS011;7210;51.502;10.722;2023-03-05T12:59:37;2.90;;;1.40;;
14251;SDS011;7210;51.502;10.722;2023-03-05T13:02:18;3.40;;;1.30;;
14251;SDS011;7210;51.502;10.722;2023-03-05T13:04:52;2.33;;;1.30;;
14251;SDS011;7210;51.502;10.722;2023-03-05T13:07:24;1.93;;;1.20;;
14251;SDS011;7210;51.502;10.722;2023-03-05T13:09:53;1.90;;;1.40;;
14251;SDS011;7210;51.502;10.722;2023-03-05T13:12:22;1.67;;;1.43;;
14251;SDS011;7210;51.502;10.722;2023-03-05T13:14:59;2.37;;;1.63;;
14251;SDS011;7210;51.502;10.722;2023-03-05T13:17:31;3.27;;;1.60;;
14251;SDS011;7210;51.502;10.722;2023-03-05T13:25:58;6.07;;;3.57;;
14251;SDS011;7210;51.502;10.722;2023-03-05T13:28:42;11.73;;;5.80;;
14251;SDS011;7210;51.502;10.722;2023-03-05T13:31:11;6.60;;;2.77;;
14251;SDS011;7210;51.502;10.722;2023-03-05T13:33:48;18.77;;;10.20;;
14251;SDS011;7210;51.502;10.722;2023-03-05T13:36:18;8.17;;;4.93;;
14251;SDS011;7210;51.502;10.722;2023-03-05T13:39:05;3.13;;;2.80;;
14251;SDS011;7210;51.502;10.722;2023-03-05T13:41:37;3.40;;;3.10;;
14251;SDS011;7210;51.502;10.722;2023-03-05T13:44:04;3.03;;;2.63;;
14251;SDS011;7210;51.502;10.722;2023-03-05T13:46:45;2.67;;;1.40;;
14251;SDS011;7210;51.502;10.722;2023-03-05T13:49:16;3.43;;;2.33;;
14251;SDS011;7210;51.502;10.722;2023-03-05T13:51:48;4.43;;;2.43;;
14251;SDS011;7210;51.502;10.722;2023-03-05T13:54:18;2.90;;;1.50;;
14251;SDS011;7210;51.502;10.722;2023-03-05T13:56:49;3.40;;;1.63;;
14251;SDS011;7210;51.502;10.722;2023-03-05T13:59:20;3.33;;;1.67;;
14251;SDS011;7210;51.502;10.722;2023-03-05T14:01:49;2.53;;;1.73;;
14251;SDS011;7210;51.502;10.722;2023-03-05T14:04:19;3.03;;;1.87;;
14251;SDS011;7210;51.502;10.722;2023-03-05T14:06:51;3.00;;;1.60;;
14251;SDS011;7210;51.502;10.722;2023-03-05T14:09:25;1.53;;;1.43;;
14251;SDS011;7210;51.502;10.722;2023-03-05T14:11:57;2.00;;;1.50;;
14251;SDS011;7210;51.502;10.722;2023-03-05T14:14:29;3.53;;;1.73;;
14251;SDS011;7210;51.502;10.722;2023-03-05T14:17:20;2.27;;;2.00;;
14251;SDS011;7210;51.502;10.722;2023-03-05T14:20:05;1.83;;;1.53;;
14251;SDS011;7210;51.502;10.722;2023-03-05T14:22:49;2.20;;;1.63;;
14251;SDS011;7210;51.502;10.722;2023-03-05T14:25:29;2.27;;;1.60;;
14251;SDS011;7210;51.502;10.722;2023-03-05T14:28:26;3.43;;;1.80;;
14251;SDS011;7210;51.502;10.722;2023-03-05T14:30:55;3.23;;;1.83;;
14251;SDS011;7210;51.502;10.722;2023-03-05T14:33:23;2.70;;;1.90;;
14251;SDS011;7210;51.502;10.722;2023-03-05T14:35:54;2.97;;;1.73;;
14251;SDS011;7210;51.502;10.722;2023-03-05T14:38:26;4.80;;;2.17;;
14251;SDS011;7210;51.502;10.722;2023-03-05T14:40:57;3.03;;;2.10;;
14251;SDS011;7210;51.502;10.722;2023-03-05T14:43:48;2.53;;;1.93;;
14251;SDS011;7210;51.502;10.722;2023-03-05T14:46:15;3.90;;;1.70;;
14251;SDS011;7210;51.502;10.722;2023-03-05T14:48:43;3.93;;;2.87;;
14251;SDS011;7210;51.502;10.722;2023-03-05T14:51:11;4.87;;;3.20;;
14251;SDS011;7210;51.502;10.722;2023-03-05T14:53:39;3.23;;;1.70;;
14251;SDS011;7210;51.502;10.722;2023-03-05T14:56:14;2.87;;;2.40;;
14251;SDS011;7210;51.502;10.722;2023-03-05T14:58:49;8.90;;;5.63;;
14251;SDS011;7210;51.502;10.722;2023-03-05T15:01:16;15.77;;;10.13;;
14251;SDS011;7210;51.502;10.722;2023-03-05T15:03:49;30.53;;;19.10;;
14251;SDS011;7210;51.502;10.722;2023-03-05T15:06:17;17.37;;;11.50;;
14251;SDS011;7210;51.502;10.722;2023-03-05T15:08:49;3.30;;;2.57;;
14251;SDS011;7210;51.502;10.722;2023-03-05T15:11:16;4.20;;;2.83;;
14251;SDS011;7210;51.502;10.722;2023-03-05T15:13:46;3.00;;;1.97;;
14251;SDS011;7210;51.502;10.722;2023-03-05T15:16:16;1.97;;;1.80;;
14251;SDS011;7210;51.502;10.722;2023-03-05T15:18:44;2.53;;;1.80;;
14251;SDS011;7210;51.502;10.722;2023-03-05T15:21:12;6.23;;;4.10;;
14251;SDS011;7210;51.502;10.722;2023-03-05T15:23:45;3.13;;;2.23;;
14251;SDS011;7210;51.502;10.722;2023-03-05T15:26:13;3.20;;;2.00;;
14251;SDS011;7210;51.502;10.722;2023-03-05T15:28:41;2.17;;;1.70;;
14251;SDS011;7210;51.502;10.722;2023-03-05T15:31:10;2.30;;;1.60;;
14251;SDS011;7210;51.502;10.722;2023-03-05T15:33:37;1.67;;;1.30;;
14251;SDS011;7210;51.502;10.722;2023-03-05T15:36:06;2.80;;;1.67;;